Terminal Aerodrome Forecast
Issued by NWS Houston/Galveston, TX

Home | Current Version | Previous Version | Text Only | Print | Product List | Glossary On
Versions: 1 2 3 4 5 6 7 8 9 10 11 12 13 14 15
000
FTUS44 KHGX 231720
TAFGLS
TAF
KGLS 231720Z 2318/2418 06009KT P6SM BKN150
     FM240000 05007KT P6SM SCT100
     FM240400 03005KT P6SM SKC
     FM241500 03010KT P6SM SKC=

USA.gov is the U.S. government's official web portal to all federal, state and local government web resources and services.